Time;durP1;ratioP1;P1;durP2;ratioP2;P2;SDS_P1;SDS_P2;PMS_P1;PMS_P2;Temp;Humidity;BMP_temperature;BMP_pressure;BME280_temperature;BME280_humidity;BME280_pressure;Samples;Min_cycle;Max_cycle;Signal;HPM_P1;HPM_P2
2022/09/25 00:01:29;;;;;;;85.13;41.50;;;;;;;11.93;100.00;100719.50;5019836;28;20036;-79
2022/09/25 00:03:54;;;;;;;85.53;39.37;;;;;;;11.88;100.00;100717.34;5022453;28;20510;-81
2022/09/25 00:06:22;;;;;;;106.03;44.07;;;;;;;11.86;100.00;100710.47;5018542;28;20128;-79
2022/09/25 00:08:48;;;;;;;87.35;40.33;;;;;;;11.95;100.00;100725.53;4991557;28;20038;-77
2022/09/25 00:11:17;;;;;;;91.05;41.28;;;;;;;11.90;100.00;100714.50;5036103;28;20910;-80
2022/09/25 00:13:44;;;;;;;98.30;44.08;;;;;;;11.87;100.00;100710.34;5021096;28;20487;-81
2022/09/25 00:16:13;;;;;;;100.35;45.00;;;;;;;11.91;100.00;100719.66;5019929;28;20040;-79
2022/09/25 00:21:28;;;;;;;80.05;33.03;;;;;;;11.78;100.00;100705.97;5035536;28;20041;-79
2022/09/25 00:23:53;;;;;;;97.53;42.42;;;;;;;11.78;100.00;100705.97;5008342;28;20037;-78
2022/09/25 00:26:19;;;;;;;101.40;43.40;;;;;;;11.82;100.00;100712.63;5026144;28;20076;-83
2022/09/25 00:28:44;;;;;;;101.53;45.03;;;;;;;11.81;100.00;100703.78;5039149;28;20032;-81
2022/09/25 00:31:11;;;;;;;95.93;41.53;;;;;;;11.80;100.00;100707.47;5013823;28;20032;-78
2022/09/25 00:33:36;;;;;;;94.88;40.10;;;;;;;11.91;100.00;100716.16;5038042;28;20041;-79
2022/09/25 00:36:07;;;;;;;96.30;42.30;;;;;;;11.88;100.00;100716.50;5014938;28;20037;-78
2022/09/25 00:38:34;;;;;;;82.88;40.30;;;;;;;11.91;100.00;100705.47;5005267;28;20029;-79
2022/09/25 00:41:01;;;;;;;99.53;43.22;;;;;;;11.93;100.00;100703.44;5033873;28;20170;-79
2022/09/25 00:43:39;;;;;;;86.85;41.05;;;;;;;11.93;100.00;100706.13;5035070;28;20486;-78
2022/09/25 00:46:10;;;;;;;91.95;43.35;;;;;;;11.93;100.00;100704.28;5019734;28;20079;-81
2022/09/25 00:48:38;;;;;;;86.70;40.00;;;;;;;11.95;100.00;100701.44;5020717;28;20091;-79
2022/09/25 00:51:04;;;;;;;83.28;40.28;;;;;;;11.93;100.00;100693.56;5038251;28;20967;-80
2022/09/25 00:53:36;;;;;;;91.22;39.13;;;;;;;11.94;100.00;100694.41;4995960;28;20538;-78
2022/09/25 00:56:02;;;;;;;86.38;40.72;;;;;;;11.89;100.00;100691.41;5024069;28;20041;-80
2022/09/25 00:58:29;;;;;;;;;;;;;;;11.89;100.00;100697.59;5012907;28;20443;-80
2022/09/25 01:00:55;;;;;;;86.60;38.80;;;;;;;11.90;100.00;100688.59;5004413;28;19923;-78
2022/09/25 01:03:21;;;;;;;93.35;39.72;;;;;;;11.95;100.00;100696.91;5011434;28;20030;-78
2022/09/25 01:05:48;;;;;;;103.50;44.53;;;;;;;11.89;100.00;100691.41;5037696;28;20056;-78
2022/09/25 01:08:18;;;;;;;97.20;42.67;;;;;;;11.84;100.00;100689.22;5018581;28;20357;-79
2022/09/25 01:10:44;;;;;;;87.70;39.60;;;;;;;11.84;100.00;100695.41;4995514;28;20419;-79
2022/09/25 01:13:12;;;;;;;95.10;41.83;;;;;;;11.89;100.00;100691.41;5024204;28;20055;-81
2022/09/25 01:16:13;;;;;;;103.60;42.33;;;;;;;11.86;100.00;100702.44;5021462;28;20361;-79
2022/09/25 01:18:58;;;;;;;108.05;43.97;;;;;;;11.91;100.00;100700.09;5024203;28;20538;-81
2022/09/25 01:22:02;;;;;;;96.07;40.17;;;;;;;11.86;100.00;100699.75;4989430;28;20042;-78
2022/09/25 01:24:36;;;;;;;89.83;40.53;;;;;;;11.88;100.00;100695.94;4954686;28;20037;-78
2022/09/25 01:27:29;;;;;;;104.90;42.30;;;;;;;11.90;100.00;100701.13;5001640;28;20049;-78
2022/09/25 01:30:01;;;;;;;94.60;40.90;;;;;;;11.91;100.00;100700.09;5032442;28;20041;-78
2022/09/25 01:32:36;;;;;;;90.43;39.67;;;;;;;11.93;100.00;100698.09;5021608;28;20053;-79
2022/09/25 01:35:40;;;;;;;107.18;41.65;;;;;;;11.90;100.00;100693.09;5022759;28;20040;-78
2022/09/25 01:38:24;;;;;;;96.65;39.65;;;;;;;11.94;100.00;100694.41;4991202;28;20091;-80
2022/09/25 01:40:59;;;;;;;106.63;43.47;;;;;;;11.89;100.00;100686.06;5024740;28;20036;-81
2022/09/25 01:43:36;;;;;;;88.18;40.60;;;;;;;11.88;100.00;100685.25;5022393;28;20037;-80
2022/09/25 01:46:10;;;;;;;90.78;39.78;;;;;;;11.91;100.00;100695.59;5019584;28;20057;-80
2022/09/25 01:48:38;;;;;;;94.22;41.50;;;;;;;11.90;100.00;100693.94;5007651;28;20037;-80
2022/09/25 01:51:17;;;;;;;89.53;41.42;;;;;;;11.88;100.00;100692.44;5036742;28;20044;-80
2022/09/25 01:53:52;;;;;;;75.32;37.95;;;;;;;11.90;100.00;100690.44;5031825;28;20075;-80
2022/09/25 01:56:33;;;;;;;85.47;41.22;;;;;;;11.87;100.00;100696.06;5017117;28;20049;-79
2022/09/25 01:59:15;;;;;;;83.32;39.75;;;;;;;11.87;100.00;100691.59;5004583;28;20043;-82
2022/09/25 02:01:43;;;;;;;84.50;39.15;;;;;;;11.87;100.00;100688.94;4996232;28;20040;-79
2022/09/25 02:04:30;;;;;;;88.90;40.30;;;;;;;11.88;100.00;100681.75;5001096;28;20444;-80
2022/09/25 02:07:00;;;;;;;96.43;43.70;;;;;;;11.94;100.00;100691.72;5015274;28;20229;-80
2022/09/25 02:09:37;;;;;;;76.47;36.47;;;;;;;11.95;100.00;100688.06;5013075;28;20043;-79
2022/09/25 02:12:16;;;;;;;77.05;37.35;;;;;;;11.92;100.00;100686.56;5002069;28;20037;-78
2022/09/25 02:14:49;;;;;;;80.53;40.13;;;;;;;11.96;100.00;100690.56;5036435;28;20033;-79
2022/09/25 02:20:30;;;;;;;82.35;39.25;;;;;;;11.94;100.00;100691.72;5006300;28;20508;-78
2022/09/25 02:22:55;;;;;;;87.53;39.63;;;;;;;11.87;100.00;100678.25;5037148;28;20044;-79
2022/09/25 02:25:43;;;;;;;83.72;39.58;;;;;;;11.89;100.00;100680.72;5039925;28;20065;-81
2022/09/25 02:28:08;;;;;;;84.10;39.67;;;;;;;11.86;100.00;100673.00;5007258;28;20326;-79
2022/09/25 02:30:34;;;;;;;76.88;40.13;;;;;;;11.87;100.00;100680.03;5023236;28;20116;-81
2022/09/25 02:33:00;;;;;;;87.50;42.33;;;;;;;11.88;100.00;100684.41;5019219;28;20029;-79
2022/09/25 02:35:25;;;;;;;96.17;42.17;;;;;;;11.84;100.00;100668.66;5005526;28;20040;-78
2022/09/25 02:37:54;;;;;;;90.93;44.10;;;;;;;11.83;100.00;100669.69;5013832;28;20024;-78
2022/09/25 02:40:25;;;;;;;95.25;42.92;;;;;;;11.86;100.00;100676.50;5013101;28;20042;-78
2022/09/25 02:43:07;;;;;;;98.60;42.83;;;;;;;11.79;100.00;100676.38;5019170;28;20041;-79
2022/09/25 02:45:48;;;;;;;92.35;42.10;;;;;;;11.86;100.00;100686.38;4992586;28;20060;-79
2022/09/25 02:48:48;;;;;;;96.38;40.70;;;;;;;11.88;100.00;100685.25;5023055;28;20065;-82
2022/09/25 02:51:20;;;;;;;91.88;41.78;;;;;;;11.89;100.00;100680.72;5022977;28;20505;-81
2022/09/25 02:54:19;;;;;;;83.10;39.15;;;;;;;11.87;100.00;100688.94;5036881;28;20467;-79
2022/09/25 02:56:57;;;;;;;82.15;41.13;;;;;;;11.87;100.00;100688.94;5007795;28;20115;-79
2022/09/25 02:59:29;;;;;;;100.35;41.90;;;;;;;11.83;100.00;100685.72;5021329;28;20057;-81
2022/09/25 03:01:56;;;;;;;105.07;44.72;;;;;;;11.79;100.00;100681.72;5004833;28;20567;-80
2022/09/25 03:04:23;;;;;;;98.78;44.55;;;;;;;11.79;100.00;100679.03;5015157;28;20025;-78
2022/09/25 03:06:49;;;;;;;82.60;40.08;;;;;;;11.78;100.00;100677.38;4988822;28;20033;-82
2022/09/25 03:09:19;;;;;;;93.32;41.78;;;;;;;11.76;100.00;100674.03;4995690;28;20040;-78
2022/09/25 03:11:45;;;;;;;87.45;43.45;;;;;;;11.76;100.00;100671.38;4994699;28;20041;-81
2022/09/25 03:14:11;;;;;;;92.53;43.00;;;;;;;11.71;100.00;100663.03;5011661;28;20044;-80
2022/09/25 03:16:50;;;;;;;95.63;43.72;;;;;;;11.74;100.00;100676.06;4995856;28;20221;-77
2022/09/25 03:19:18;;;;;;;91.78;40.47;;;;;;;11.72;100.00;100672.72;4997858;28;20471;-79
2022/09/25 03:21:45;;;;;;;93.63;42.85;;;;;;;11.74;100.00;100672.56;5009884;28;20025;-82
2022/09/25 03:24:10;;;;;;;80.95;39.78;;;;;;;11.75;100.00;100667.03;4999015;28;20026;-77
2022/09/25 03:26:36;;;;;;;95.78;45.83;;;;;;;11.69;100.00;100665.03;4998272;28;20036;-79
2022/09/25 03:29:01;;;;;;;98.13;44.50;;;;;;;11.72;100.00;100678.06;5010581;28;20017;-77
2022/09/25 03:31:28;;;;;;;83.03;40.53;;;;;;;11.65;100.00;100665.56;5013659;28;20154;-77
2022/09/25 03:33:54;;;;;;;104.55;46.13;;;;;;;11.69;100.00;100670.38;5022786;28;20293;-82
2022/09/25 03:36:26;;;;;;;97.80;44.20;;;;;;;11.67;100.00;100663.56;5019444;28;20124;-79
2022/09/25 03:38:56;;;;;;;89.15;43.22;;;;;;;11.64;100.00;100651.34;5022205;28;20033;-78
2022/09/25 03:41:22;;;;;;;98.43;45.78;;;;;;;11.65;100.00;100661.03;5021147;28;20042;-80
2022/09/25 03:43:50;;;;;;;88.35;43.28;;;;;;;11.69;100.00;100661.53;5026705;28;20020;-78
2022/09/25 03:46:18;;;;;;;83.95;40.10;;;;;;;11.67;100.00;100660.88;5022710;28;20040;-78
2022/09/25 03:48:45;;;;;;;95.03;43.35;;;;;;;11.67;100.00;100661.69;5008106;28;20148;-81
2022/09/25 03:51:11;;;;;;;103.47;45.90;;;;;;;11.59;100.00;100659.06;5017247;28;20040;-78
2022/09/25 03:53:38;;;;;;;101.45;44.45;;;;;;;11.63;100.00;100663.03;4999863;28;20386;-78
2022/09/25 03:56:11;;;;;;;96.80;43.65;;;;;;;11.62;100.00;100667.56;5021121;28;20040;-82
2022/09/25 03:58:37;;;;;;;92.72;45.83;;;;;;;11.64;100.00;100666.56;5036198;28;20167;-80
2022/09/25 04:01:03;;;;;;;82.38;40.38;;;;;;;11.61;100.00;100670.41;5018668;28;20041;-80
2022/09/25 04:03:30;;;;;;;99.13;46.15;;;;;;;11.61;100.00;100665.06;5013222;28;20042;-79
2022/09/25 04:05:57;;;;;;;91.82;43.85;;;;;;;11.62;100.00;100670.25;5036004;28;20024;-81
2022/09/25 04:08:25;;;;;;;99.97;45.10;;;;;;;11.58;100.00;100670.75;5033837;28;20026;-80
2022/09/25 04:10:55;;;;;;;108.53;47.67;;;;;;;11.59;100.00;100665.25;5004642;28;20123;-80
2022/09/25 04:13:22;;;;;;;99.72;46.33;;;;;;;11.62;100.00;100664.88;5019768;28;20055;-80
2022/09/25 04:15:47;;;;;;;94.45;45.63;;;;;;;11.65;100.00;100663.72;5022944;28;20034;-81
2022/09/25 04:18:13;;;;;;;94.55;48.55;;;;;;;11.63;100.00;100663.03;5027395;28;20455;-80
2022/09/25 04:20:39;;;;;;;110.03;49.03;;;;;;;11.65;100.00;100662.88;5004431;28;20036;-79
2022/09/25 04:23:05;;;;;;;105.40;48.33;;;;;;;11.60;100.00;100663.41;5025601;28;20615;-80
2022/09/25 04:25:30;;;;;;;110.70;47.90;;;;;;;11.64;100.00;100662.06;5005050;28;20044;-80
2022/09/25 04:27:57;;;;;;;113.57;49.47;;;;;;;11.68;100.00;100667.88;5028626;28;20044;-80
2022/09/25 04:30:24;;;;;;;90.25;43.95;;;;;;;11.65;100.00;100661.03;5030916;28;20131;-80
2022/09/25 04:35:33;;;;;;;90.70;45.13;;;;;;;11.68;100.00;100666.03;5026091;28;20033;-79
2022/09/25 04:37:59;;;;;;;117.00;50.57;;;;;;;11.67;100.00;100663.56;5035864;28;20414;-79
2022/09/25 04:40:25;;;;;;;110.57;50.80;;;;;;;11.64;100.00;100651.34;5010031;28;20056;-80
2022/09/25 04:42:58;;;;;;;110.38;51.38;;;;;;;11.64;100.00;100659.38;5024485;28;20307;-81
2022/09/25 04:45:25;;;;;;;102.88;50.83;;;;;;;11.68;100.00;100663.34;5021012;28;20341;-79
2022/09/25 04:47:52;;;;;;;113.60;51.53;;;;;;;11.69;100.00;100662.38;5022088;28;20025;-81
2022/09/25 04:50:19;;;;;;;100.78;48.95;;;;;;;11.67;100.00;100667.06;5044897;28;20171;-81
2022/09/25 04:52:44;;;;;;;96.03;48.22;;;;;;;11.65;100.00;100658.38;5017229;28;20076;-80
2022/09/25 04:55:09;;;;;;;100.43;52.10;;;;;;;11.66;100.00;100660.03;5004482;28;20073;-79
2022/09/25 04:57:35;;;;;;;101.43;49.87;;;;;;;11.70;100.00;100666.69;5011550;28;20049;-79
2022/09/25 05:00:01;;;;;;;101.88;51.15;;;;;;;11.69;100.00;100665.03;5023896;28;20021;-79
2022/09/25 05:02:27;;;;;;;94.90;46.78;;;;;;;11.74;100.00;100676.06;5015629;28;20479;-79
2022/09/25 05:04:53;;;;;;;97.43;48.67;;;;;;;11.70;100.00;100661.34;5035938;28;20041;-79
2022/09/25 05:07:18;;;;;;;115.15;51.30;;;;;;;11.73;100.00;100678.88;5016353;28;20619;-79
2022/09/25 05:09:43;;;;;;;104.23;51.07;;;;;;;11.66;100.00;100660.03;5032339;28;20045;-79
2022/09/25 05:12:09;;;;;;;92.60;47.47;;;;;;;11.75;100.00;100671.53;5028757;28;20560;-80
2022/09/25 05:14:34;;;;;;;87.77;46.17;;;;;;;11.75;100.00;100663.50;5031428;28;20452;-80
2022/09/25 05:17:00;;;;;;;93.47;47.43;;;;;;;11.82;100.00;100672.50;5026628;28;20076;-79
2022/09/25 05:19:26;;;;;;;110.07;49.78;;;;;;;11.78;100.00;100665.84;5010273;28;20422;-79
2022/09/25 05:21:52;;;;;;;98.38;47.72;;;;;;;11.73;100.00;100658.34;5020310;28;20024;-80
2022/09/25 05:24:17;;;;;;;106.72;51.10;;;;;;;11.76;100.00;100657.16;5023904;28;20033;-79
2022/09/25 05:26:43;;;;;;;99.07;48.73;;;;;;;11.68;100.00;100641.13;5032959;28;20565;-79
2022/09/25 05:29:09;;;;;;;98.43;48.53;;;;;;;11.66;100.00;100633.31;5025444;28;20126;-78
2022/09/25 05:31:35;;;;;;;96.55;47.78;;;;;;;11.66;100.00;100638.66;5029357;28;20033;-79
2022/09/25 05:34:01;;;;;;;105.47;48.08;;;;;;;11.69;100.00;100640.16;5030019;28;20362;-79
2022/09/25 05:36:27;;;;;;;96.13;48.93;;;;;;;11.69;100.00;100642.81;5024024;28;20076;-79
2022/09/25 05:38:53;;;;;;;;;;;;;;;11.70;100.00;100636.47;5027298;28;20287;-79
2022/09/25 05:41:18;;;;;;;;;;;;;;;11.73;100.00;100644.97;5017136;28;19921;-79
2022/09/25 05:43:46;;;;;;;103.27;48.07;;;;;;;11.64;100.00;100635.31;5017356;28;19986;-78
2022/09/25 05:46:12;;;;;;;105.30;50.08;;;;;;;11.69;100.00;100649.00;5023801;28;20024;-79
2022/09/25 05:48:38;;;;;;;98.40;47.83;;;;;;;11.67;100.00;100650.19;4999256;28;20056;-79
2022/09/25 05:51:04;;;;;;;86.90;43.22;;;;;;;11.66;100.00;100654.69;5017973;28;20041;-80
2022/09/25 05:53:29;;;;;;;89.95;46.22;;;;;;;11.64;100.00;100646.00;5027152;28;20037;-78
2022/09/25 05:56:00;;;;;;;116.17;50.43;;;;;;;11.65;100.00;100652.19;5031439;28;20033;-79
2022/09/25 05:58:27;;;;;;;99.00;45.42;;;;;;;11.68;100.00;100638.47;5024920;28;20029;-80
2022/09/25 06:00:53;;;;;;;94.85;43.80;;;;;;;11.68;100.00;100628.59;5028351;28;20021;-79
2022/09/25 06:03:20;;;;;;;96.78;45.05;;;;;;;11.73;100.00;100638.78;5019445;28;20072;-79
2022/09/25 06:05:45;;;;;;;79.20;41.00;;;;;;;11.66;100.00;100633.31;5014512;28;20123;-79
2022/09/25 06:08:14;;;;;;;107.15;45.55;;;;;;;11.73;100.00;100638.78;5028352;28;20037;-79
2022/09/25 06:10:40;;;;;;;85.70;42.90;;;;;;;11.70;100.00;100629.25;5016211;28;20108;-78
2022/09/25 06:13:05;;;;;;;85.13;41.90;;;;;;;11.72;100.00;100627.25;5045545;28;20036;-79
2022/09/25 06:15:36;;;;;;;85.70;42.07;;;;;;;11.82;100.00;100641.28;5032855;28;20368;-79
2022/09/25 06:18:03;;;;;;;75.57;38.25;;;;;;;11.84;100.00;100644.56;5023811;28;20036;-79
2022/09/25 06:20:29;;;;;;;64.13;34.30;;;;;;;11.90;100.00;100644.94;5010821;28;20043;-78
2022/09/25 06:22:56;;;;;;;74.07;37.78;;;;;;;11.93;100.00;100640.06;5027497;28;20033;-78
2022/09/25 06:25:24;;;;;;;82.63;40.03;;;;;;;11.91;100.00;100639.41;5029028;28;20502;-79
2022/09/25 06:27:54;;;;;;;78.00;39.92;;;;;;;11.89;100.00;100637.91;5018554;28;20072;-79
2022/09/25 06:30:22;;;;;;;75.72;39.92;;;;;;;11.96;100.00;100629.03;5004343;28;20041;-78
2022/09/25 06:32:49;;;;;;;77.80;37.83;;;;;;;11.95;100.00;100624.69;5002213;28;20048;-79
2022/09/25 06:35:15;;;;;;;71.13;38.53;;;;;;;12.03;100.00;100623.81;5014200;28;20049;-79
2022/09/25 06:37:40;;;;;;;66.00;36.97;;;;;;;12.00;100.00;100614.28;5013111;28;20494;-78
2022/09/25 06:40:07;;;;;;;67.87;36.93;;;;;;;12.06;100.00;100620.78;5016339;28;20037;-79
2022/09/25 06:42:34;;;;;;;67.55;35.15;;;;;;;12.06;100.00;100617.25;5029774;28;20116;-79
2022/09/25 06:45:00;;;;;;;62.50;34.85;;;;;;;12.11;100.00;100609.56;5026166;28;20502;-79
2022/09/25 06:47:25;;;;;;;68.75;36.90;;;;;;;12.16;100.00;100609.88;5029253;28;20056;-79
2022/09/25 06:49:51;;;;;;;61.10;34.53;;;;;;;12.23;100.00;100608.16;5026990;28;20491;-79
2022/09/25 06:52:17;;;;;;;62.47;36.67;;;;;;;12.22;100.00;100610.00;5028904;28;20044;-78
2022/09/25 06:54:42;;;;;;;61.00;32.63;;;;;;;12.21;100.00;100607.50;5021278;28;20537;-78
2022/09/25 06:57:08;;;;;;;63.43;34.87;;;;;;;12.28;100.00;100615.66;5028269;28;20025;-79
2022/09/25 06:59:34;;;;;;;;;;;;;;;12.36;100.00;100612.91;5017596;28;20030;-78
2022/09/25 07:03:43;;;;;;;;;;;;;;;12.42;100.00;100614.88;5014043;28;20352;-78
2022/09/25 07:04:44;;;;;;;55.10;30.85;;;;;;;12.42;100.00;100605.00;5042617;28;19916;-79
2022/09/25 07:07:10;;;;;;;50.40;28.67;;;;;;;12.52;100.00;100601.25;5022031;28;20401;-79
2022/09/25 07:09:35;;;;;;;49.93;31.30;;;;;;;12.54;100.00;100600.06;5033304;28;20045;-79
2022/09/25 07:12:01;;;;;;;49.83;29.63;;;;;;;12.63;100.00;100599.00;5028414;28;20040;-79
2022/09/25 07:14:26;;;;;;;49.13;29.10;;;;;;;12.61;100.00;100597.50;5000981;28;20028;-79
2022/09/25 07:16:52;;;;;;;49.40;30.83;;;;;;;12.57;100.00;100589.00;5023339;28;20036;-79
2022/09/25 07:19:17;;;;;;;41.33;25.00;;;;;;;12.67;100.00;100594.13;5020671;28;20115;-79
2022/09/25 07:21:43;;;;;;;46.83;28.00;;;;;;;12.75;100.00;100585.19;5001441;28;20037;-79
2022/09/25 07:24:08;;;;;;;44.03;27.88;;;;;;;12.87;100.00;100591.75;5033646;28;20378;-78
2022/09/25 07:26:34;;;;;;;46.07;28.40;;;;;;;12.81;100.00;100587.16;5029583;28;20545;-78
2022/09/25 07:29:05;;;;;;;43.03;28.20;;;;;;;12.82;100.00;100586.13;5032288;28;20025;-79
2022/09/25 07:31:32;;;;;;;41.22;26.42;;;;;;;12.81;100.00;100587.97;5032684;28;20087;-79
2022/09/25 07:34:01;;;;;;;41.67;27.52;;;;;;;12.75;100.00;100575.28;5043071;28;20040;-79
2022/09/25 07:36:27;;;;;;;42.88;29.02;;;;;;;12.81;100.00;100582.63;5014682;28;20470;-79
2022/09/25 07:38:53;;;;;;;42.28;26.77;;;;;;;12.85;100.00;100585.75;5029658;28;20029;-78
2022/09/25 07:41:21;;;;;;;41.40;27.15;;;;;;;12.87;100.00;100589.09;5025333;28;20037;-79
2022/09/25 07:43:55;;;;;;;38.00;25.50;;;;;;;12.86;100.00;100584.75;5018196;28;20032;-79
2022/09/25 07:46:21;;;;;;;41.35;27.05;;;;;;;12.93;100.00;100584.88;5003233;28;20056;-78
2022/09/25 07:48:48;;;;;;;42.15;25.98;;;;;;;12.94;100.00;100581.97;5046578;28;20033;-79
2022/09/25 07:51:13;;;;;;;40.63;26.35;;;;;;;13.01;100.00;100587.44;5022808;28;20071;-79
2022/09/25 07:53:40;;;;;;;40.77;26.17;;;;;;;13.02;100.00;100589.97;5038568;28;20176;-79
2022/09/25 07:56:05;;;;;;;;;;;;;;;12.86;100.00;100590.09;5032255;28;20045;-79
2022/09/25 07:58:30;;;;;;;42.03;26.55;;;;;;;12.95;100.00;100590.88;5032799;28;19913;-78
2022/09/25 08:01:00;;;;;;;40.67;27.17;;;;;;;12.98;100.00;100596.69;5024801;28;20182;-79
2022/09/25 08:03:26;;;;;;;39.65;26.63;;;;;;;12.99;100.00;100603.69;5036924;28;20479;-80
2022/09/25 08:06:12;;;;;;;40.08;25.92;;;;;;;13.10;100.00;100611.31;5034600;28;20021;-79
2022/09/25 08:08:39;;;;;;;37.30;25.70;;;;;;;13.12;100.00;100604.94;5028667;28;20065;-79
2022/09/25 08:11:07;;;;;;;39.60;25.42;;;;;;;13.10;100.00;100605.94;5030792;28;20490;-78
2022/09/25 08:13:33;;;;;;;39.38;24.98;;;;;;;13.06;100.00;100599.31;5018104;28;20394;-79
2022/09/25 08:16:05;;;;;;;36.25;22.50;;;;;;;13.11;100.00;100606.81;5034843;28;20033;-79
2022/09/25 08:18:32;;;;;;;32.35;21.92;;;;;;;13.25;100.00;100623.91;5022216;28;20063;-79
2022/09/25 08:21:01;;;;;;;;;;;;;;;13.36;100.00;100615.44;5026791;28;20028;-80
2022/09/25 08:23:26;;;;;;;31.85;22.45;;;;;;;13.33;100.00;100593.53;5023944;28;19917;-79
2022/09/25 08:25:52;;;;;;;35.43;21.17;;;;;;;13.26;100.00;100598.78;5035088;28;20062;-80
2022/09/25 08:28:17;;;;;;;33.23;21.97;;;;;;;13.33;100.00;100609.63;5033020;28;20038;-80
2022/09/25 08:30:43;;;;;;;26.30;19.03;;;;;;;13.21;100.00;100590.44;5024106;28;20037;-79
2022/09/25 08:33:11;;;;;;;31.30;20.30;;;;;;;13.26;100.00;100585.38;5033344;28;20033;-80
2022/09/25 08:35:37;;;;;;;23.52;16.63;;;;;;;13.26;100.00;100590.72;5005709;28;20033;-80
2022/09/25 08:38:04;;;;;;;22.63;17.25;;;;;;;13.07;100.00;100576.84;5005053;28;20509;-79
2022/09/25 08:40:31;;;;;;;37.92;19.25;;;;;;;13.13;100.00;100596.69;5024302;28;20033;-80
2022/09/25 08:42:58;;;;;;;30.35;19.92;;;;;;;13.09;100.00;100596.25;5028899;28;20026;-80
2022/09/25 08:51:29;;;;;;;28.80;19.17;;;;;;;13.44;100.00;100628.78;5047104;28;20041;-80
2022/09/25 08:53:54;;;;;;;25.05;18.25;;;;;;;13.54;100.00;100616.94;5034401;28;20068;-79
2022/09/25 08:56:20;;;;;;;24.70;17.60;;;;;;;13.67;100.00;100612.59;5030009;28;20048;-80
2022/09/25 08:58:59;;;;;;;24.33;17.25;;;;;;;13.82;100.00;100615.25;5006372;28;20093;-80
2022/09/25 09:01:29;;;;;;;22.90;16.45;;;;;;;13.90;100.00;100604.41;5034287;28;20025;-80
2022/09/25 09:04:13;;;;;;;22.55;15.93;;;;;;;13.86;100.00;100586.19;5015537;28;20451;-78
2022/09/25 09:06:40;;;;;;;27.10;16.70;;;;;;;13.98;100.00;100586.53;5018344;28;20098;-79
2022/09/25 09:09:23;;;;;;;22.88;15.75;;;;;;;14.19;100.00;100586.59;5030003;28;20029;-79
2022/09/25 09:12:06;;;;;;;24.10;17.10;;;;;;;14.41;100.00;100575.84;5032983;28;20028;-78
2022/09/25 09:14:39;;;;;;;20.52;17.20;;;;;;;14.28;100.00;100547.84;5001564;28;20033;-79
2022/09/25 09:17:14;;;;;;;22.52;16.15;;;;;;;14.61;100.00;100559.94;5031845;28;20029;-78
2022/09/25 09:19:40;;;;;;;21.00;14.77;;;;;;;14.55;100.00;100540.06;5017396;28;20025;-79
2022/09/25 09:22:09;;;;;;;19.42;14.90;;;;;;;14.72;100.00;100541.44;4996301;28;20021;-79
2022/09/25 09:25:08;;;;;;;20.75;14.68;;;;;;;14.46;100.00;100533.13;5026258;28;20030;-78
2022/09/25 09:27:51;;;;;;;19.65;14.10;;;;;;;14.59;100.00;100544.03;5013522;28;20041;-78
2022/09/25 09:30:22;;;;;;;18.88;12.73;;;;;;;14.87;100.00;100551.28;5012189;28;20052;-78
2022/09/25 09:33:09;;;;;;;18.58;13.18;;;;;;;14.35;100.00;100535.31;5010138;28;20075;-78
2022/09/25 09:35:50;;;;;;;16.42;13.38;;;;;;;14.41;100.00;100533.69;5003813;28;20048;-78
2022/09/25 09:38:22;;;;;;;15.23;12.27;;;;;;;14.05;100.00;100529.22;5029684;28;20120;-78
2022/09/25 09:40:53;;;;;;;17.88;12.38;;;;;;;13.87;100.00;100547.59;5041115;28;20479;-78
2022/09/25 09:43:30;;;;;;;18.25;13.55;;;;;;;13.58;100.00;100552.00;5019735;28;20055;-79
2022/09/25 09:46:01;;;;;;;19.80;13.57;;;;;;;13.47;100.00;100596.22;5037912;28;20144;-78
2022/09/25 09:48:38;;;;;;;17.08;11.95;;;;;;;13.47;100.00;100606.94;4997084;28;20037;-78
2022/09/25 09:51:28;;;;;;;17.50;11.85;;;;;;;13.24;100.00;100615.03;5004373;28;20073;-79
2022/09/25 09:53:59;;;;;;;21.55;12.90;;;;;;;13.13;100.00;100620.81;5004188;28;20490;-79
2022/09/25 09:56:30;;;;;;;17.98;11.93;;;;;;;13.07;100.00;100635.81;5027682;28;20033;-79
2022/09/25 09:59:39;;;;;;;17.80;12.10;;;;;;;13.07;100.00;100659.91;5047691;28;20043;-79
2022/09/25 10:02:37;;;;;;;19.20;12.07;;;;;;;12.98;100.00;100669.03;5006907;28;20045;-79
2022/09/25 10:05:11;;;;;;;20.08;12.57;;;;;;;12.92;100.00;100676.97;5020011;28;20041;-79
2022/09/25 10:07:38;;;;;;;19.97;13.80;;;;;;;12.69;100.00;100667.09;5043669;28;20037;-79
2022/09/25 10:10:13;;;;;;;21.73;14.30;;;;;;;12.66;100.00;100680.81;5011067;28;20556;-78
2022/09/25 10:12:46;;;;;;;25.02;13.05;;;;;;;12.63;100.00;100697.25;5042912;28;20036;-79
2022/09/25 10:15:25;;;;;;;24.23;15.05;;;;;;;12.70;100.00;100700.06;5009375;28;20097;-79
2022/09/25 10:17:53;;;;;;;21.25;13.00;;;;;;;12.51;100.00;100696.84;5037301;28;20039;-78
2022/09/25 10:20:21;;;;;;;23.33;13.50;;;;;;;12.62;100.00;100704.47;5024203;28;20425;-79
2022/09/25 10:22:50;;;;;;;15.57;12.15;;;;;;;12.73;100.00;100719.28;5001446;28;20025;-78
2022/09/25 10:25:34;;;;;;;17.48;12.02;;;;;;;12.71;100.00;100710.59;5018910;28;20029;-79
2022/09/25 10:28:00;;;;;;;18.63;11.82;;;;;;;12.78;100.00;100718.75;5035101;28;20068;-79
2022/09/25 10:30:25;;;;;;;21.67;11.32;;;;;;;12.82;100.00;100715.53;5040377;28;20072;-79
2022/09/25 10:33:13;;;;;;;19.40;11.03;;;;;;;12.94;100.00;100710.59;5027133;28;20055;-78
2022/09/25 10:35:44;;;;;;;20.75;10.98;;;;;;;13.01;100.00;100710.72;5015010;28;20048;-78
2022/09/25 10:38:38;;;;;;;17.85;10.77;;;;;;;13.03;100.00;100709.53;5020195;28;20025;-79
2022/09/25 10:41:12;;;;;;;16.95;10.48;;;;;;;12.91;100.00;100692.22;4992050;28;20041;-78
2022/09/25 10:43:59;;;;;;;19.55;12.10;;;;;;;12.98;100.00;100697.69;5012871;28;20045;-79
2022/09/25 10:52:17;;;;;;;17.08;10.57;;;;;;;12.78;100.00;100681.25;5036039;28;20033;-79
2022/09/25 10:54:43;;;;;;;14.13;9.70;;;;;;;12.72;100.00;100682.81;5026097;28;20191;-79
2022/09/25 10:57:34;;;;;;;21.40;11.93;;;;;;;12.71;100.00;100696.38;5041357;28;20100;-78
2022/09/25 11:00:17;;;;;;;18.42;11.05;;;;;;;12.68;100.00;100698.38;5018989;28;20559;-77
2022/09/25 11:02:45;;;;;;;14.95;9.90;;;;;;;12.64;100.00;100702.44;5024392;28;20076;-78
2022/09/25 11:05:17;;;;;;;19.75;10.55;;;;;;;12.65;100.00;100693.38;5003992;28;20028;-78
2022/09/25 11:07:54;;;;;;;12.95;9.10;;;;;;;12.78;100.00;100695.50;5015785;28;20021;-78
2022/09/25 11:10:24;;;;;;;15.55;11.23;;;;;;;12.82;100.00;100693.28;5021725;28;20095;-79
2022/09/25 11:12:51;;;;;;;18.10;9.10;;;;;;;12.75;100.00;100673.56;5018195;28;20527;-79
2022/09/25 11:15:19;;;;;;;18.38;9.52;;;;;;;12.82;100.00;100680.72;5022216;28;20033;-78
2022/09/25 11:17:49;;;;;;;10.77;7.60;;;;;;;12.80;100.00;100669.34;5011037;28;20029;-78
2022/09/25 11:20:17;;;;;;;13.90;8.27;;;;;;;12.76;100.00;100669.88;5010067;28;20017;-79
2022/09/25 11:22:50;;;;;;;12.80;8.07;;;;;;;12.74;100.00;100663.88;5041493;28;20096;-78
2022/09/25 11:25:32;;;;;;;12.73;8.00;;;;;;;12.61;100.00;100654.56;5022643;28;20048;-78
2022/09/25 11:28:34;;;;;;;15.75;9.20;;;;;;;12.75;100.00;100671.72;5035963;28;20029;-78
2022/09/25 11:31:04;;;;;;;13.93;8.07;;;;;;;12.65;100.00;100671.13;5017550;28;20436;-78
2022/09/25 11:33:46;;;;;;;13.32;7.97;;;;;;;12.68;100.00;100679.63;4996570;28;20048;-78
2022/09/25 11:36:21;;;;;;;20.88;9.63;;;;;;;12.57;100.00;100666.69;5040258;28;20458;-78
2022/09/25 11:41:44;;;;;;;16.10;9.75;;;;;;;12.48;100.00;100672.22;5043791;28;20386;-79